Amarillo, TX (79168)

8:01 PM CDT on October 01, 2014 (GMT -0500)
Oliver-Eakle | Change Station
CLOSE
Current Station
Personal Weather Station
Location: Amarillo, TX
Elevation: 3678 ft
Nearby Weather Stations

Elev 3678 ft 35.19 °N, 101.84 °W | Updated 6 seconds ago

Clear
Clear
74.6 °F
Feels Like 77 °F
N
0.0
Wind Variable Wind from SSW
Gusts 0.0 mph

Today
High -- | Low -- °F
--% Chance of Precip.
Yesterday
High -- | Low -- °F
Precip. -- in
7:42 AM 7:31 PM
First Quarter, 53% visible
Pressure 29.71 in
Visibility 10.0 miles
Clouds Clear
Heat Index 77 °F
Dew Point 44 °F
Humidity 34%
Rainfall 0.00 in
Snow Depth Not available.
UV 0 out of 12
Pollen 9.10 out of 12
Air Quality Not available.
Flu Activity Not available.
METAR KAMA 020053Z 20007KT 10SM CLR 21/06 A2980 RMK AO2 SLP059 T02110061

More Conditions Fewer Conditions

Pressure 29.71 in
Visibility 10.0 miles
Clouds Clear
Heat Index 77 °F
Dew Point 44 °F
Humidity 34%
Rainfall 0.00 in
Snow Depth Not available.
UV 0 out of 12
Pollen 9.10 out of 12
Air Quality Not available.
Flu Activity Not available.
METAR KAMA 020053Z 20007KT 10SM CLR 21/06 A2980 RMK AO2 SLP059 T02110061

More Conditions Fewer Conditions

10-Day Weather Forecast

Almanac

Astronomy

Oct. 01, 2014 Rise Set
Actual Time 7:42 AM CDT 7:31 PM CDT
Civil Twilight 7:16 AM CDT 7:56 PM CDT
Nautical Twilight 6:47 AM CDT 8:25 PM CDT
Astronomical Twilight 6:17 AM CDT 8:55 PM CDT
Moon 2:35 PM CDT (10/1) 12:14 AM CDT (10/1)
Length of Visible Light 12h 39m
Length of Day
11h 48m
Tomorrow will be 2m 11s shorter.
First Quarter, 53% of the Moon is Illuminated
Today
First Quarter
Oct 8
Full
Oct 15
Last Quarter
Oct 23
New
Oct 30
First Quarter

Today's Extremes

State Highs State Lows

Community

WunderPhotos

Upload Photos

1,758,109 photos uploaded!

WunderBlogs® & News

Nearby

Snow Depth

Station Depth Elevation
No new snow has been reported.

Earthquake Activity

City Distance Mag. Time & Date
No recent earthquake activity has been reported nearby.
Minimum magnitude displayed is 2.5.

Coastal Water Temperatures

Place Temperature
No Stations Reporting

Nearby Weather Stations